createdAt,value
2023-03-27T00:00:31.213Z,24.59
2023-03-27T00:02:58.421Z,25.53
2023-03-27T00:05:28.238Z,25.53
2023-03-27T00:07:55.925Z,25.32
2023-03-27T00:10:23.266Z,24.95
2023-03-27T00:12:50.717Z,24.72
2023-03-27T00:15:18.084Z,25.17
2023-03-27T00:17:49.269Z,24.70
2023-03-27T00:20:18.436Z,25.32
2023-03-27T00:22:47.348Z,25.52
2023-03-27T00:25:14.947Z,24.87
2023-03-27T00:27:42.133Z,25.53
2023-03-27T00:30:10.837Z,25.65
2023-03-27T00:32:37.918Z,25.42
2023-03-27T00:35:06.125Z,24.89
2023-03-27T00:37:33.624Z,25.09
2023-03-27T00:40:02.243Z,26.15
2023-03-27T00:42:30.058Z,26.27
2023-03-27T00:44:57.229Z,26.21
2023-03-27T00:47:29.679Z,27.30
2023-03-27T00:49:57.744Z,26.21
2023-03-27T00:52:25.160Z,25.53
2023-03-27T00:54:52.653Z,26.07
2023-03-27T00:57:21.627Z,26.27
2023-03-27T00:59:50.198Z,25.59
2023-03-27T01:02:18.084Z,25.06
2023-03-27T01:04:46.087Z,24.88
2023-03-27T01:07:13.898Z,25.42
2023-03-27T01:09:41.226Z,25.62
2023-03-27T01:12:18.859Z,24.99
2023-03-27T01:14:54.943Z,25.26
2023-03-27T01:17:30.940Z,24.80
2023-03-27T01:20:18.949Z,25.60
2023-03-27T01:23:04.373Z,25.08
2023-03-27T01:25:46.932Z,26.06
2023-03-27T01:28:31.317Z,25.25
2023-03-27T01:31:08.085Z,25.52
2023-03-27T01:33:53.953Z,25.21
2023-03-27T01:36:33.982Z,25.20
2023-03-27T01:39:16.195Z,25.67
2023-03-27T01:41:50.214Z,24.71
2023-03-27T01:44:20.661Z,25.32
2023-03-27T01:46:50.658Z,25.03
2023-03-27T01:49:21.297Z,25.57
2023-03-27T01:51:52.317Z,25.43
2023-03-27T01:54:22.261Z,25.12
2023-03-27T01:56:53.774Z,24.94
2023-03-27T01:59:25.596Z,24.60
2023-03-27T02:01:56.106Z,24.74
2023-03-27T02:04:25.915Z,24.70
2023-03-27T02:06:56.385Z,24.51
2023-03-27T02:09:26.331Z,25.38
2023-03-27T02:11:59.016Z,24.73
2023-03-27T02:14:28.338Z,24.95
2023-03-27T02:16:59.372Z,24.74
2023-03-27T02:19:28.502Z,24.62
2023-03-27T02:21:55.883Z,24.70
2023-03-27T02:24:23.669Z,25.18
2023-03-27T02:26:54.011Z,24.74
2023-03-27T02:29:30.220Z,25.44
2023-03-27T02:32:03.470Z,24.86
2023-03-27T02:34:52.023Z,25.22
2023-03-27T02:37:23.387Z,24.76
2023-03-27T02:40:25.807Z,24.66
2023-03-27T02:43:04.788Z,25.45
2023-03-27T02:45:39.219Z,25.94
2023-03-27T02:48:09.563Z,25.61
2023-03-27T02:50:39.537Z,24.99
2023-03-27T02:53:13.130Z,26.05
2023-03-27T02:55:43.417Z,25.06
2023-03-27T02:58:15.445Z,25.08
2023-03-27T03:01:17.885Z,25.61
2023-03-27T03:04:06.361Z,26.04
2023-03-27T03:06:52.905Z,25.52
2023-03-27T03:09:20.177Z,25.03
2023-03-27T03:11:48.642Z,25.22
2023-03-27T03:14:17.494Z,26.11
2023-03-27T03:16:46.184Z,26.02
2023-03-27T03:19:13.762Z,25.30
2023-03-27T03:21:41.388Z,26.14
2023-03-27T03:24:12.421Z,26.12
2023-03-27T03:26:40.018Z,25.51
2023-03-27T03:29:07.155Z,25.23
2023-03-27T03:31:38.537Z,26.01
2023-03-27T03:34:08.044Z,25.96
2023-03-27T03:36:35.359Z,25.57
2023-03-27T03:39:06.793Z,26.13
2023-03-27T03:41:34.984Z,25.97
2023-03-27T03:44:02.747Z,25.41
2023-03-27T03:46:30.458Z,25.15
2023-03-27T03:48:59.926Z,26.12
2023-03-27T03:51:29.098Z,25.43
2023-03-27T03:53:56.220Z,26.12
2023-03-27T03:56:23.625Z,26.04
2023-03-27T03:58:53.433Z,25.54
2023-03-27T04:01:22.102Z,26.19
2023-03-27T04:03:53.419Z,25.61
2023-03-27T04:06:21.588Z,25.95
2023-03-27T04:08:51.081Z,26.00
2023-03-27T04:11:41.244Z,25.99
2023-03-27T04:14:26.971Z,25.50
2023-03-27T04:16:56.877Z,25.88
2023-03-27T04:19:26.576Z,26.02
2023-03-27T04:22:00.036Z,25.85
2023-03-27T04:24:31.577Z,25.54
2023-03-27T04:26:59.834Z,25.91
2023-03-27T04:29:27.005Z,26.02
2023-03-27T04:32:18.269Z,25.63
2023-03-27T04:35:08.142Z,25.97
2023-03-27T04:37:48.583Z,26.27
2023-03-27T04:40:40.690Z,26.17
2023-03-27T04:43:08.896Z,26.23
2023-03-27T04:45:36.508Z,26.86
2023-03-27T04:48:05.163Z,26.44
2023-03-27T04:50:33.077Z,26.60
2023-03-27T04:53:00.171Z,26.24
2023-03-27T04:55:33.933Z,26.78
2023-03-27T04:58:03.159Z,26.46
2023-03-27T05:00:31.003Z,25.82
2023-03-27T05:03:18.207Z,26.89
2023-03-27T05:06:01.029Z,26.21
2023-03-27T05:08:29.272Z,27.10
2023-03-27T05:10:56.879Z,26.52
2023-03-27T05:13:26.186Z,26.73
2023-03-27T05:15:53.868Z,26.16
2023-03-27T05:18:23.943Z,26.47
2023-03-27T05:20:51.339Z,25.81
2023-03-27T05:23:18.461Z,26.65
2023-03-27T05:25:45.577Z,26.93
2023-03-27T05:28:37.271Z,26.67
2023-03-27T05:31:05.295Z,26.13
2023-03-27T05:33:41.092Z,26.35
2023-03-27T05:36:09.781Z,26.43
2023-03-27T05:38:38.534Z,26.42
2023-03-27T05:41:12.768Z,26.85
2023-03-27T05:43:50.188Z,26.21
2023-03-27T05:46:21.722Z,27.68
2023-03-27T05:48:55.303Z,28.16
2023-03-27T05:51:23.566Z,28.14
2023-03-27T05:53:50.915Z,28.24
2023-03-27T05:56:20.754Z,28.80
2023-03-27T05:58:56.880Z,28.84
2023-03-27T06:01:26.733Z,29.05
2023-03-27T06:03:56.300Z,29.21
2023-03-27T06:06:28.754Z,29.90
2023-03-27T06:08:58.942Z,30.27
2023-03-27T06:11:28.125Z,29.98
2023-03-27T06:13:58.691Z,30.24
2023-03-27T06:16:44.260Z,28.69
2023-03-27T06:19:29.988Z,29.06
2023-03-27T06:21:59.167Z,29.57
2023-03-27T06:24:26.421Z,29.45
2023-03-27T06:26:53.865Z,29.49
2023-03-27T06:29:23.822Z,29.31
2023-03-27T06:31:51.804Z,31.01
2023-03-27T06:34:41.928Z,30.27
2023-03-27T06:37:29.794Z,30.48
2023-03-27T06:39:57.975Z,30.72
2023-03-27T06:42:25.816Z,29.61
2023-03-27T06:45:02.471Z,29.99
2023-03-27T06:48:16.978Z,29.87
2023-03-27T06:50:51.333Z,29.56
2023-03-27T06:55:51.126Z,29.41
2023-03-27T06:58:18.941Z,29.28
2023-03-27T07:00:48.660Z,29.65
2023-03-27T07:03:19.480Z,29.53
2023-03-27T07:06:00.555Z,30.43
2023-03-27T07:08:34.832Z,29.77
2023-03-27T07:11:11.490Z,30.10
2023-03-27T07:13:49.766Z,29.71
2023-03-27T07:16:24.999Z,29.58
2023-03-27T07:18:52.789Z,30.61
2023-03-27T07:21:20.297Z,30.22
2023-03-27T07:23:47.773Z,30.34
2023-03-27T07:26:20.510Z,30.57
2023-03-27T07:28:54.004Z,30.45
2023-03-27T07:31:37.300Z,29.78
2023-03-27T07:34:13.462Z,29.61
2023-03-27T07:37:20.835Z,30.22
2023-03-27T07:40:08.633Z,29.75
2023-03-27T07:42:38.383Z,31.53
2023-03-27T07:45:08.066Z,30.14
2023-03-27T07:47:37.012Z,30.31
2023-03-27T07:50:08.283Z,29.65
2023-03-27T07:52:35.615Z,30.83
2023-03-27T07:55:05.052Z,30.10
2023-03-27T07:57:57.095Z,30.16
2023-03-27T08:00:28.622Z,29.97
2023-03-27T08:03:09.638Z,30.82
2023-03-27T08:05:43.174Z,30.24
2023-03-27T08:08:14.927Z,30.92
2023-03-27T08:10:51.047Z,30.02
2023-03-27T08:13:18.431Z,30.86
2023-03-27T08:15:46.237Z,30.40
2023-03-27T08:18:24.487Z,30.18
2023-03-27T08:20:55.902Z,30.42
2023-03-27T08:23:26.333Z,30.08
2023-03-27T08:26:08.900Z,30.59
2023-03-27T08:28:45.566Z,30.50
2023-03-27T08:31:15.180Z,29.66
2023-03-27T08:33:45.777Z,29.78
2023-03-27T08:36:21.329Z,30.12
2023-03-27T08:38:49.094Z,30.05
2023-03-27T08:41:25.079Z,29.86
2023-03-27T08:44:04.179Z,29.63
2023-03-27T08:46:34.998Z,29.83
2023-03-27T08:49:08.552Z,29.88
2023-03-27T08:51:38.523Z,29.88
2023-03-27T08:54:10.040Z,30.10
2023-03-27T08:56:38.264Z,29.74
2023-03-27T08:59:12.226Z,29.62
2023-03-27T09:01:42.662Z,29.61
2023-03-27T09:04:18.381Z,29.85
2023-03-27T09:06:55.272Z,29.62
2023-03-27T09:09:32.425Z,29.19
2023-03-27T09:12:06.544Z,29.86
2023-03-27T09:14:41.206Z,29.30
2023-03-27T09:17:16.561Z,29.30
2023-03-27T09:19:49.969Z,29.54
2023-03-27T09:22:24.555Z,29.15
2023-03-27T09:25:20.152Z,28.54
2023-03-27T09:28:16.134Z,29.38
2023-03-27T09:30:50.443Z,29.56
2023-03-27T09:33:28.075Z,29.31
2023-03-27T09:35:59.005Z,29.37
2023-03-27T09:38:30.592Z,28.93
2023-03-27T09:41:02.131Z,29.28
2023-03-27T09:43:39.926Z,30.29
2023-03-27T09:46:09.605Z,30.04
2023-03-27T09:48:40.186Z,29.26
2023-03-27T09:51:33.209Z,29.63
2023-03-27T09:54:04.282Z,30.69
2023-03-27T09:56:36.322Z,30.75
2023-03-27T09:59:09.695Z,30.71
2023-03-27T10:01:37.579Z,30.48
2023-03-27T10:04:16.927Z,29.74
2023-03-27T10:06:47.988Z,29.72
2023-03-27T10:09:30.439Z,29.01
2023-03-27T10:12:09.402Z,28.77
2023-03-27T10:14:40.262Z,29.04
2023-03-27T10:17:14.242Z,29.28
2023-03-27T10:19:43.088Z,29.30
2023-03-27T10:22:18.204Z,28.71
2023-03-27T10:24:48.752Z,29.11
2023-03-27T10:27:47.411Z,29.47
2023-03-27T10:30:41.891Z,31.14
2023-03-27T10:33:32.621Z,29.40
2023-03-27T10:36:34.196Z,28.84
2023-03-27T10:39:10.461Z,29.18
2023-03-27T10:41:48.720Z,29.15
2023-03-27T10:44:18.958Z,28.67
2023-03-27T10:46:53.606Z,28.34
2023-03-27T10:49:29.179Z,28.35
2023-03-27T10:52:03.569Z,28.25
2023-03-27T10:54:45.621Z,28.22
2023-03-27T10:57:18.469Z,28.43
2023-03-27T10:59:48.194Z,28.84
2023-03-27T11:02:29.509Z,27.57
2023-03-27T11:05:01.064Z,27.65
2023-03-27T11:07:32.353Z,28.18
2023-03-27T11:10:06.817Z,27.88
2023-03-27T11:12:39.116Z,27.20
2023-03-27T11:15:12.005Z,26.33
2023-03-27T11:17:42.440Z,26.48
2023-03-27T11:20:44.545Z,26.39
2023-03-27T11:23:22.545Z,26.60
2023-03-27T11:26:24.939Z,26.73
2023-03-27T11:28:58.755Z,26.35
2023-03-27T11:31:37.829Z,25.90
2023-03-27T11:34:09.861Z,26.70
2023-03-27T11:36:44.200Z,26.12
2023-03-27T11:39:21.985Z,26.26
2023-03-27T11:41:52.362Z,25.74
2023-03-27T11:44:23.033Z,25.26
2023-03-27T11:47:40.291Z,25.60
2023-03-27T11:50:24.985Z,25.70
2023-03-27T11:52:58.498Z,24.82
2023-03-27T11:55:54.518Z,24.60
2023-03-27T11:58:27.997Z,25.22
2023-03-27T12:01:03.095Z,24.20
2023-03-27T12:03:49.640Z,24.91
2023-03-27T12:06:28.116Z,24.64
2023-03-27T12:09:11.178Z,24.67
2023-03-27T12:12:06.086Z,23.74
2023-03-27T12:14:41.146Z,24.46
2023-03-27T12:17:21.212Z,24.00
2023-03-27T12:20:11.841Z,23.60
2023-03-27T12:22:52.398Z,24.94
2023-03-27T12:25:52.364Z,24.70
2023-03-27T12:28:27.901Z,24.24
2023-03-27T12:31:05.772Z,24.08
2023-03-27T12:33:42.723Z,24.47
2023-03-27T12:36:14.468Z,24.31
2023-03-27T12:38:44.291Z,24.18
2023-03-27T12:41:23.176Z,23.73
2023-03-27T12:43:59.374Z,24.30
2023-03-27T12:46:32.252Z,24.88
2023-03-27T12:49:03.892Z,24.30
2023-03-27T12:51:37.196Z,24.95
2023-03-27T12:54:15.557Z,24.69
2023-03-27T12:56:43.857Z,24.79
2023-03-27T12:59:24.026Z,25.61
2023-03-27T13:02:07.010Z,24.75
2023-03-27T13:04:54.449Z,24.99
2023-03-27T13:07:27.945Z,24.70
2023-03-27T13:10:15.216Z,24.21
2023-03-27T13:12:54.445Z,24.32
2023-03-27T13:15:36.687Z,24.53
2023-03-27T13:18:27.914Z,25.02
2023-03-27T13:21:05.056Z,25.10
2023-03-27T13:23:43.535Z,24.50
2023-03-27T13:26:26.602Z,25.30
2023-03-27T13:28:56.975Z,25.13
2023-03-27T13:31:56.605Z,24.32
2023-03-27T13:34:41.926Z,24.22
2023-03-27T13:37:36.799Z,24.46
2023-03-27T13:40:18.341Z,24.30
2023-03-27T13:42:49.070Z,23.76
2023-03-27T13:45:20.309Z,23.98
2023-03-27T13:48:25.218Z,24.08
2023-03-27T13:51:10.973Z,23.38
2023-03-27T13:53:49.856Z,23.64
2023-03-27T13:56:46.302Z,23.18
2023-03-27T13:59:41.025Z,22.58
2023-03-27T14:02:28.366Z,23.31
2023-03-27T14:05:04.647Z,23.08
2023-03-27T14:07:53.843Z,22.66
2023-03-27T14:10:32.116Z,23.17
2023-03-27T14:13:19.936Z,22.55
2023-03-27T14:16:01.348Z,23.26
2023-03-27T14:19:01.545Z,22.43
2023-03-27T14:21:38.603Z,22.43
2023-03-27T14:24:18.536Z,23.46
2023-03-27T14:26:53.348Z,22.24
2023-03-27T14:29:21.862Z,22.17
2023-03-27T14:31:52.061Z,22.30
2023-03-27T14:34:43.829Z,23.06
2023-03-27T14:37:35.738Z,22.62
2023-03-27T14:40:19.322Z,23.00
2023-03-27T14:42:49.638Z,22.10
2023-03-27T14:45:19.516Z,22.48
2023-03-27T14:47:50.422Z,23.18
2023-03-27T14:50:19.125Z,22.60
2023-03-27T14:52:52.307Z,21.81
2023-03-27T14:55:21.468Z,22.37
2023-03-27T14:57:58.700Z,22.69
2023-03-27T15:00:33.463Z,22.04
2023-03-27T15:03:05.148Z,23.22
2023-03-27T15:05:34.560Z,22.64
2023-03-27T15:08:11.931Z,22.09
2023-03-27T15:10:59.248Z,21.79
2023-03-27T15:13:39.212Z,22.64
2023-03-27T15:16:16.490Z,24.22
2023-03-27T15:18:50.913Z,23.75
2023-03-27T15:21:23.126Z,21.60
2023-03-27T15:23:55.401Z,22.03
2023-03-27T15:26:25.207Z,21.77
2023-03-27T15:28:59.318Z,21.70
2023-03-27T15:31:28.925Z,21.86
2023-03-27T15:33:59.581Z,23.33
2023-03-27T15:36:29.348Z,21.37
2023-03-27T15:38:59.056Z,21.72
2023-03-27T15:41:40.852Z,21.05
2023-03-27T15:44:13.747Z,22.02
2023-03-27T15:46:47.498Z,22.30
2023-03-27T15:49:23.087Z,21.51
2023-03-27T15:51:50.869Z,21.73
2023-03-27T15:54:28.478Z,21.37
2023-03-27T15:57:10.417Z,21.17
2023-03-27T15:59:51.942Z,21.20
2023-03-27T16:02:24.143Z,21.22
2023-03-27T16:04:53.632Z,21.51
2023-03-27T16:07:23.318Z,21.91
2023-03-27T16:09:52.593Z,21.55
2023-03-27T16:12:20.839Z,21.52
2023-03-27T16:14:53.706Z,21.92
2023-03-27T16:17:29.183Z,21.89
2023-03-27T16:19:57.818Z,22.99
2023-03-27T16:22:26.764Z,22.43
2023-03-27T16:24:54.799Z,22.82
2023-03-27T16:27:24.180Z,22.14
2023-03-27T16:29:53.343Z,23.11
2023-03-27T16:32:21.944Z,22.55
2023-03-27T16:34:51.083Z,22.32
2023-03-27T16:37:19.055Z,22.49
2023-03-27T16:39:46.177Z,22.18
2023-03-27T16:42:14.863Z,22.38
2023-03-27T16:44:42.793Z,22.43
2023-03-27T16:47:10.793Z,23.43
2023-03-27T16:49:38.447Z,23.38
2023-03-27T16:52:07.805Z,22.47
2023-03-27T16:54:35.080Z,22.22
2023-03-27T16:57:02.942Z,22.95
2023-03-27T16:59:30.509Z,23.65
2023-03-27T17:01:58.061Z,22.11
2023-03-27T17:04:26.297Z,22.28
2023-03-27T17:06:53.706Z,23.19
2023-03-27T17:09:22.373Z,23.28
2023-03-27T17:11:49.599Z,22.25
2023-03-27T17:14:16.622Z,22.75
2023-03-27T17:16:44.265Z,22.15
2023-03-27T17:19:13.036Z,23.38
2023-03-27T17:21:40.764Z,22.30
2023-03-27T17:24:08.179Z,23.49
2023-03-27T17:26:37.637Z,22.47
2023-03-27T17:29:06.294Z,23.15
2023-03-27T17:31:34.093Z,22.86
2023-03-27T17:34:02.537Z,23.32
2023-03-27T17:36:40.074Z,23.56
2023-03-27T17:39:10.783Z,22.63
2023-03-27T17:41:39.357Z,23.75
2023-03-27T17:44:07.630Z,23.31
2023-03-27T17:46:35.397Z,22.98
2023-03-27T17:49:02.708Z,22.91
2023-03-27T17:51:29.895Z,22.20
2023-03-27T17:53:57.559Z,23.21
2023-03-27T17:56:25.462Z,22.53
2023-03-27T17:58:54.894Z,22.30
2023-03-27T18:01:23.991Z,23.02
2023-03-27T18:03:52.342Z,22.55
2023-03-27T18:06:19.607Z,22.46
2023-03-27T18:08:47.569Z,23.13
2023-03-27T18:11:15.556Z,23.22
2023-03-27T18:13:46.009Z,23.07
2023-03-27T18:16:15.114Z,23.53
2023-03-27T18:18:42.297Z,23.68
2023-03-27T18:21:11.116Z,23.51
2023-03-27T18:23:46.272Z,22.43
2023-03-27T18:26:14.973Z,23.28
2023-03-27T18:28:42.093Z,22.32
2023-03-27T18:31:10.978Z,23.37
2023-03-27T18:33:41.188Z,22.64
2023-03-27T18:36:09.578Z,23.15
2023-03-27T18:38:37.617Z,23.06
2023-03-27T18:41:04.993Z,23.32
2023-03-27T18:43:32.166Z,24.07
2023-03-27T18:46:00.560Z,23.44
2023-03-27T18:48:29.003Z,23.17
2023-03-27T18:51:01.944Z,24.41
2023-03-27T18:53:30.089Z,22.56
2023-03-27T18:55:57.948Z,23.85
2023-03-27T18:58:26.393Z,23.21
2023-03-27T19:00:54.832Z,22.45
2023-03-27T19:03:22.664Z,23.38
2023-03-27T19:05:51.795Z,23.74
2023-03-27T19:08:22.247Z,23.34
2023-03-27T19:10:49.874Z,23.75
2023-03-27T19:13:22.985Z,23.37
2023-03-27T19:16:19.888Z,23.29
2023-03-27T19:19:07.192Z,23.39
2023-03-27T19:21:54.865Z,24.22
2023-03-27T19:24:37.776Z,22.77
2023-03-27T19:27:05.145Z,24.19
2023-03-27T19:29:32.449Z,23.56
2023-03-27T19:31:59.913Z,22.85
2023-03-27T19:34:36.404Z,23.03
2023-03-27T19:37:09.577Z,23.99
2023-03-27T19:39:38.763Z,23.19
2023-03-27T19:42:06.026Z,23.39
2023-03-27T19:44:36.602Z,23.59
2023-03-27T19:47:04.146Z,23.53
2023-03-27T19:49:31.709Z,22.80
2023-03-27T19:52:25.601Z,23.53
2023-03-27T19:54:54.199Z,22.28
2023-03-27T19:57:23.733Z,24.38
2023-03-27T19:59:51.031Z,24.05
2023-03-27T20:02:18.147Z,22.17
2023-03-27T20:04:45.478Z,23.53
2023-03-27T20:07:12.737Z,23.94
2023-03-27T20:09:40.075Z,24.11
2023-03-27T20:12:08.790Z,23.46
2023-03-27T20:14:35.888Z,22.32
2023-03-27T20:17:05.039Z,23.07
2023-03-27T20:19:33.820Z,22.43
2023-03-27T20:22:02.109Z,23.44
2023-03-27T20:24:29.332Z,23.92
2023-03-27T20:26:59.576Z,23.05
2023-03-27T20:29:28.521Z,23.47
2023-03-27T20:31:56.048Z,22.98
2023-03-27T20:34:23.782Z,23.24
2023-03-27T20:36:51.378Z,22.04
2023-03-27T20:39:33.630Z,24.04
2023-03-27T20:42:00.747Z,23.13
2023-03-27T20:44:31.349Z,24.20
2023-03-27T20:46:58.593Z,23.08
2023-03-27T20:51:55.557Z,23.43
2023-03-27T20:54:22.735Z,22.00
2023-03-27T20:56:49.866Z,23.17
2023-03-27T20:59:17.614Z,23.68
2023-03-27T21:01:46.896Z,23.59
2023-03-27T21:04:14.697Z,23.32
2023-03-27T21:06:42.134Z,24.34
2023-03-27T21:09:10.078Z,23.92
2023-03-27T21:11:37.140Z,24.26
2023-03-27T21:14:04.220Z,22.58
2023-03-27T21:16:31.302Z,23.17
2023-03-27T21:18:59.932Z,23.72
2023-03-27T21:21:32.099Z,23.50
2023-03-27T21:23:59.159Z,22.87
2023-03-27T21:26:26.458Z,22.33
2023-03-27T21:28:55.158Z,24.15
2023-03-27T21:31:22.424Z,23.37
2023-03-27T21:33:49.513Z,24.08
2023-03-27T21:36:18.470Z,23.27
2023-03-27T21:38:45.701Z,24.06
2023-03-27T21:41:13.823Z,23.30
2023-03-27T21:43:41.501Z,23.18
2023-03-27T21:46:08.656Z,22.97
2023-03-27T21:48:36.461Z,23.57
2023-03-27T21:51:04.645Z,23.31
2023-03-27T21:53:33.774Z,23.67
2023-03-27T21:56:01.153Z,22.71
2023-03-27T21:58:28.960Z,24.14
2023-03-27T22:00:57.241Z,23.72
2023-03-27T22:03:25.457Z,23.38
2023-03-27T22:06:07.938Z,22.32
2023-03-27T22:08:41.656Z,22.64
2023-03-27T22:11:09.435Z,23.96
2023-03-27T22:13:36.924Z,23.20
2023-03-27T22:16:07.437Z,22.07
2023-03-27T22:18:34.584Z,22.24
2023-03-27T22:21:11.597Z,21.96
2023-03-27T22:23:40.647Z,23.00
2023-03-27T22:26:08.358Z,22.59
2023-03-27T22:28:35.566Z,23.00
2023-03-27T22:31:03.232Z,22.87
2023-03-27T22:33:30.426Z,23.77
2023-03-27T22:35:58.004Z,23.32
2023-03-27T22:38:25.457Z,23.15
2023-03-27T22:40:54.254Z,23.43
2023-03-27T22:43:22.392Z,23.33
2023-03-27T22:45:50.186Z,24.27
2023-03-27T22:48:17.422Z,23.69
2023-03-27T22:50:44.591Z,24.15
2023-03-27T22:53:12.129Z,24.32
2023-03-27T22:55:39.744Z,23.41
2023-03-27T22:58:08.298Z,23.37
2023-03-27T23:00:35.398Z,23.58
2023-03-27T23:03:03.320Z,23.62
2023-03-27T23:05:30.481Z,22.65
2023-03-27T23:07:57.600Z,23.99
2023-03-27T23:10:24.820Z,23.75
2023-03-27T23:12:51.949Z,23.39
2023-03-27T23:15:30.489Z,23.20
2023-03-27T23:17:58.140Z,21.74
2023-03-27T23:20:25.266Z,23.33
2023-03-27T23:22:52.402Z,23.06
2023-03-27T23:25:19.647Z,23.63
2023-03-27T23:27:47.136Z,23.27
2023-03-27T23:30:14.378Z,24.14
2023-03-27T23:32:42.897Z,23.75
2023-03-27T23:35:11.241Z,23.62
2023-03-27T23:37:39.830Z,23.72
2023-03-27T23:40:07.790Z,24.02
2023-03-27T23:42:35.066Z,23.37
2023-03-27T23:45:02.211Z,24.38
2023-03-27T23:47:29.366Z,24.28
2023-03-27T23:49:57.916Z,24.60
2023-03-27T23:52:24.990Z,23.83
2023-03-27T23:54:52.102Z,23.31
2023-03-27T23:57:19.369Z,23.66
2023-03-27T23:59:46.645Z,24.92
